Time;durP1;ratioP1;P1;durP2;ratioP2;P2;SDS_P1;SDS_P2;PMS_P1;PMS_P2;Temp;Humidity;BMP_temperature;BMP_pressure;BME280_temperature;BME280_humidity;BME280_pressure;Samples;Min_cycle;Max_cycle;Signal;HPM_P1;HPM_P2
2023/03/15 00:00:19;;;;;;;3.90;3.50;;;6.50;54.90;;;;;;4983144;28;20030;-80
2023/03/15 00:02:45;;;;;;;4.07;3.53;;;6.50;55.00;;;;;;4982396;28;20038;-83
2023/03/15 00:05:14;;;;;;;3.65;3.33;;;6.50;55.10;;;;;;4983697;28;20185;-82
2023/03/15 00:07:40;;;;;;;5.15;3.15;;;6.40;55.00;;;;;;4973714;28;20023;-82
2023/03/15 00:10:06;;;;;;;3.78;3.47;;;6.40;55.00;;;;;;4979971;28;20049;-81
2023/03/15 00:12:33;;;;;;;4.78;3.78;;;6.40;55.60;;;;;;4985391;28;20417;-80
2023/03/15 00:14:59;;;;;;;4.38;3.38;;;6.30;54.90;;;;;;4980089;28;20310;-80
2023/03/15 00:17:25;;;;;;;4.88;3.53;;;6.30;55.00;;;;;;4982455;28;20106;-79
2023/03/15 00:19:51;;;;;;;5.45;4.22;;;6.30;55.00;;;;;;4980379;28;20255;-81
2023/03/15 00:22:17;;;;;;;6.65;4.97;;;6.20;54.90;;;;;;4980290;28;20222;-80
2023/03/15 00:24:43;;;;;;;6.50;4.47;;;6.20;55.00;;;;;;4984332;28;20802;-81
2023/03/15 00:27:09;;;;;;;5.68;4.90;;;6.20;55.00;;;;;;4982390;28;20547;-80
2023/03/15 00:29:35;;;;;;;6.25;3.88;;;6.20;55.10;;;;;;4982161;28;20049;-82
2023/03/15 00:32:02;;;;;;;5.55;4.00;;;6.10;55.00;;;;;;4984394;28;20359;-81
2023/03/15 00:34:27;;;;;;;4.72;4.07;;;6.10;55.00;;;;;;4984733;28;20038;-80
2023/03/15 00:36:53;;;;;;;6.57;4.00;;;6.10;55.10;;;;;;4967818;28;20041;-80
2023/03/15 00:39:20;;;;;;;6.50;4.57;;;6.00;54.90;;;;;;4982560;28;20034;-81
2023/03/15 00:41:46;;;;;;;3.75;3.38;;;6.00;54.90;;;;;;4986135;28;20022;-80
2023/03/15 00:44:13;;;;;;;4.47;3.58;;;6.00;55.00;;;;;;4985299;28;20048;-80
2023/03/15 00:46:39;;;;;;;4.72;3.45;;;5.90;54.80;;;;;;4986234;28;20061;-79
2023/03/15 00:49:05;;;;;;;3.63;3.25;;;5.90;54.80;;;;;;4971446;28;20807;-80
2023/03/15 00:51:32;;;;;;;5.35;3.85;;;5.90;54.90;;;;;;4969538;28;20037;-81
2023/03/15 00:53:58;;;;;;;5.43;3.80;;;5.80;54.80;;;;;;4983351;28;20041;-81
2023/03/15 00:56:26;;;;;;;4.85;3.60;;;5.80;54.80;;;;;;4985155;28;20030;-80
2023/03/15 00:58:52;;;;;;;4.68;3.50;;;5.80;54.80;;;;;;4991175;28;20129;-82
2023/03/15 01:01:24;;;;;;;4.18;3.38;;;5.70;54.70;;;;;;4989598;28;20057;-82
2023/03/15 01:03:50;;;;;;;4.28;3.83;;;5.70;54.80;;;;;;4985003;28;20057;-81
2023/03/15 01:06:20;;;;;;;3.60;3.28;;;5.70;54.80;;;;;;4989705;28;20034;-83
2023/03/15 01:08:47;;;;;;;4.03;3.20;;;5.60;54.70;;;;;;4989115;28;20230;-82
2023/03/15 01:11:23;;;;;;;4.35;3.45;;;5.60;54.70;;;;;;4987940;28;20108;-83
2023/03/15 01:13:55;;;;;;;5.03;3.33;;;5.60;54.80;;;;;;4987808;28;20468;-80
2023/03/15 01:16:22;;;;;;;3.73;3.27;;;5.50;54.60;;;;;;4983973;28;20525;-82
2023/03/15 01:18:50;;;;;;;3.78;3.42;;;5.50;54.70;;;;;;4985120;28;20303;-82
2023/03/15 01:21:17;;;;;;;4.15;3.30;;;5.50;54.70;;;;;;4997994;28;20240;-81
2023/03/15 01:23:46;;;;;;;3.38;3.08;;;5.40;54.50;;;;;;4983633;28;20285;-80
2023/03/15 01:26:15;;;;;;;3.97;3.00;;;5.40;54.60;;;;;;4985818;28;20030;-81
2023/03/15 01:28:43;;;;;;;4.25;3.75;;;5.40;54.60;;;;;;4988968;28;20154;-82
2023/03/15 01:31:30;;;;;;;3.78;3.40;;;5.40;54.60;;;;;;4987935;28;20217;-81
2023/03/15 01:33:57;;;;;;;3.30;3.00;;;5.40;54.70;;;;;;4985688;28;20397;-82
2023/03/15 01:36:24;;;;;;;3.65;3.03;;;5.30;54.50;;;;;;4989101;28;20048;-82
2023/03/15 01:38:51;;;;;;;4.68;3.50;;;5.30;54.60;;;;;;4988358;28;20034;-83
2023/03/15 01:41:20;;;;;;;3.65;3.05;;;5.30;54.60;;;;;;4984789;28;20133;-82
2023/03/15 01:43:47;;;;;;;5.43;4.03;;;5.20;54.40;;;;;;4981651;28;20050;-81
2023/03/15 01:46:23;;;;;;;5.30;4.07;;;5.20;54.60;;;;;;4990663;28;20039;-81
2023/03/15 01:49:08;;;;;;;6.00;3.78;;;5.20;54.60;;;;;;4983535;28;20102;-79
2023/03/15 01:51:57;;;;;;;6.72;4.38;;;5.10;54.40;;;;;;4965687;28;20513;-79
2023/03/15 01:54:45;;;;;;;6.70;3.97;;;5.10;54.40;;;;;;4983024;28;20034;-80
2023/03/15 01:57:25;;;;;;;5.25;4.18;;;5.10;54.40;;;;;;4986884;28;20041;-81
2023/03/15 02:00:09;;;;;;;4.90;3.95;;;5.10;54.50;;;;;;4984236;28;20037;-81
2023/03/15 02:02:56;;;;;;;6.40;4.35;;;5.00;54.90;;;;;;4984846;28;20054;-80
2023/03/15 02:05:36;;;;;;;8.38;4.28;;;5.00;54.40;;;;;;4991466;28;20050;-79
2023/03/15 02:08:07;;;;;;;5.68;4.20;;;5.00;54.40;;;;;;4980293;28;20022;-81
2023/03/15 02:10:45;;;;;;;5.30;3.83;;;4.90;54.30;;;;;;4962661;28;20133;-81
2023/03/15 02:13:16;;;;;;;6.72;4.00;;;4.90;54.40;;;;;;4986123;28;20029;-81
2023/03/15 02:15:45;;;;;;;6.55;4.28;;;4.90;54.40;;;;;;4983046;28;20034;-81
2023/03/15 02:18:15;;;;;;;4.68;3.63;;;4.90;54.40;;;;;;4984781;28;20108;-81
2023/03/15 02:20:50;;;;;;;7.07;3.70;;;4.80;54.20;;;;;;4985445;28;20038;-82
2023/03/15 02:23:19;;;;;;;7.30;4.47;;;4.80;54.20;;;;;;4999415;28;20098;-81
2023/03/15 02:25:50;;;;;;;6.55;4.35;;;4.80;54.30;;;;;;4963990;28;20031;-79
2023/03/15 02:28:18;;;;;;;4.43;4.00;;;4.80;54.30;;;;;;4983060;28;20030;-80
2023/03/15 02:30:45;;;;;;;5.45;3.40;;;4.80;54.30;;;;;;4983721;28;20026;-80
2023/03/15 02:33:21;;;;;;;4.95;3.60;;;4.70;54.20;;;;;;4967760;28;20034;-80
2023/03/15 02:35:47;;;;;;;5.63;3.95;;;4.70;54.30;;;;;;4966832;28;20030;-78
2023/03/15 02:38:13;;;;;;;5.00;3.67;;;4.70;54.30;;;;;;4980826;28;20482;-80
2023/03/15 02:40:40;;;;;;;4.18;3.70;;;4.70;54.30;;;;;;4991502;28;20473;-80
2023/03/15 02:43:14;;;;;;;3.65;3.35;;;4.60;54.10;;;;;;4981030;28;20056;-80
2023/03/15 02:45:41;;;;;;;5.55;3.20;;;4.60;54.20;;;;;;4983367;28;20507;-80
2023/03/15 02:48:09;;;;;;;4.25;3.53;;;4.60;54.20;;;;;;4974609;28;20399;-79
2023/03/15 02:50:36;;;;;;;4.82;3.85;;;4.60;54.20;;;;;;4986648;28;20552;-80
2023/03/15 02:53:02;;;;;;;4.88;3.17;;;4.60;54.30;;;;;;4982679;28;20038;-79
2023/03/15 02:55:31;;;;;;;3.65;3.13;;;4.50;54.10;;;;;;4985492;28;20034;-79
2023/03/15 02:57:58;;;;;;;4.68;3.42;;;4.50;54.20;;;;;;4983816;28;20045;-80
2023/03/15 03:00:25;;;;;;;4.40;4.00;;;4.50;54.70;;;;;;4983697;28;20034;-80
2023/03/15 03:02:51;;;;;;;7.20;3.45;;;4.40;54.00;;;;;;4983558;28;20046;-81
2023/03/15 03:05:17;;;;;;;4.10;3.55;;;4.40;54.10;;;;;;4980303;28;20358;-80
2023/03/15 03:07:44;;;;;;;3.83;3.40;;;4.40;54.10;;;;;;4983086;28;20038;-81
2023/03/15 03:10:14;;;;;;;4.07;3.22;;;4.40;54.20;;;;;;4968786;28;20022;-79
2023/03/15 03:12:52;;;;;;;3.97;3.47;;;4.40;54.20;;;;;;4983030;28;20520;-80
2023/03/15 03:15:21;;;;;;;4.90;3.00;;;4.40;54.20;;;;;;4996182;28;20038;-80
2023/03/15 03:17:47;;;;;;;4.35;2.92;;;4.30;54.00;;;;;;4984347;28;20389;-81
2023/03/15 03:20:13;;;;;;;5.18;3.00;;;4.40;54.20;;;;;;4988840;28;20019;-82
2023/03/15 03:22:44;;;;;;;4.03;3.17;;;4.30;54.00;;;;;;4992814;28;20044;-82
2023/03/15 03:25:13;;;;;;;3.35;2.67;;;4.30;54.00;;;;;;4992611;28;20385;-81
2023/03/15 03:27:40;;;;;;;3.28;2.78;;;4.30;54.00;;;;;;4996444;28;20507;-82
2023/03/15 03:30:11;;;;;;;7.70;3.03;;;4.30;54.10;;;;;;4984970;28;20030;-80
2023/03/15 03:32:40;;;;;;;3.25;2.80;;;4.20;54.50;;;;;;4995137;28;20458;-80
2023/03/15 03:35:07;;;;;;;3.00;2.58;;;4.20;53.90;;;;;;4984189;28;20104;-83
2023/03/15 03:37:34;;;;;;;4.88;2.83;;;4.20;54.00;;;;;;4977920;28;20101;-81
2023/03/15 03:40:07;;;;;;;2.80;2.60;;;4.20;54.00;;;;;;4985702;28;20474;-82
2023/03/15 03:42:34;;;;;;;3.05;2.50;;;4.10;53.90;;;;;;4985186;28;20058;-84
2023/03/15 03:45:02;;;;;;;3.05;2.72;;;4.10;53.90;;;;;;4996427;28;20109;-82
2023/03/15 03:47:33;;;;;;;4.43;2.45;;;4.10;53.90;;;;;;4985570;28;20030;-83
2023/03/15 03:49:59;;;;;;;4.43;3.15;;;4.00;53.80;;;;;;4986581;28;20048;-83
2023/03/15 03:52:26;;;;;;;3.50;2.35;;;4.00;53.90;;;;;;4980210;28;20133;-81
2023/03/15 03:54:59;;;;;;;3.50;2.78;;;4.00;53.90;;;;;;4984278;28;20034;-82
2023/03/15 03:57:25;;;;;;;2.72;2.53;;;3.90;53.70;;;;;;4983391;28;20124;-83
2023/03/15 03:59:51;;;;;;;3.72;2.50;;;3.90;53.70;;;;;;4984181;28;20088;-83
2023/03/15 04:02:17;;;;;;;2.58;2.38;;;3.90;53.70;;;;;;4979521;28;20034;-84
2023/03/15 04:04:53;;;;;;;3.75;2.70;;;3.90;53.80;;;;;;4985157;28;20034;-82
2023/03/15 04:07:20;;;;;;;3.95;2.50;;;3.90;53.80;;;;;;4984650;28;20096;-82
2023/03/15 04:09:47;;;;;;;2.75;2.40;;;3.90;53.90;;;;;;4985093;28;20104;-83
2023/03/15 04:12:13;;;;;;;3.10;2.58;;;3.90;53.90;;;;;;4966787;28;20049;-82
2023/03/15 04:14:41;;;;;;;3.22;2.85;;;3.80;53.70;;;;;;4986161;28;20030;-81
2023/03/15 04:17:10;;;;;;;4.07;2.17;;;3.90;53.90;;;;;;4980659;28;20057;-80
2023/03/15 04:19:36;;;;;;;3.10;2.47;;;3.80;53.80;;;;;;4974193;28;20077;-81
2023/03/15 04:22:05;;;;;;;3.17;2.60;;;3.80;53.70;;;;;;4988411;28;20062;-80
2023/03/15 04:24:54;;;;;;;3.03;2.72;;;3.80;53.80;;;;;;4983822;28;20026;-82
2023/03/15 04:27:57;;;;;;;3.38;2.65;;;3.70;53.60;;;;;;4980651;28;20164;-81
2023/03/15 04:30:49;;;;;;;2.75;2.38;;;3.70;53.60;;;;;;4976558;28;20102;-81
2023/03/15 04:33:34;;;;;;;2.97;2.58;;;3.70;53.60;;;;;;4986493;28;20485;-81
2023/03/15 04:36:01;;;;;;;3.22;2.60;;;3.70;53.60;;;;;;4983864;28;20125;-80
2023/03/15 04:38:37;;;;;;;5.82;2.80;;;3.70;53.60;;;;;;4974930;28;20217;-80
2023/03/15 04:41:26;;;;;;;4.40;2.47;;;3.60;53.50;;;;;;4993888;28;20352;-82
2023/03/15 04:44:16;;;;;;;3.95;3.00;;;3.60;53.50;;;;;;4979233;28;20406;-81
2023/03/15 04:46:54;;;;;;;3.33;2.70;;;3.60;53.50;;;;;;4969092;28;20520;-81
2023/03/15 04:49:43;;;;;;;4.63;3.00;;;3.60;53.50;;;;;;4981658;28;20430;-80
2023/03/15 04:52:26;;;;;;;5.28;2.63;;;3.60;53.60;;;;;;4983560;28;20374;-80
2023/03/15 04:55:12;;;;;;;5.40;2.38;;;3.50;53.40;;;;;;4980963;28;20154;-79
2023/03/15 04:58:00;;;;;;;3.70;2.35;;;3.50;53.40;;;;;;4977044;28;20125;-80
2023/03/15 05:00:34;;;;;;;3.25;2.80;;;3.50;53.40;;;;;;5003990;28;20038;-79
2023/03/15 05:03:22;;;;;;;5.13;2.58;;;3.50;53.40;;;;;;5003127;28;20046;-80
2023/03/15 05:06:07;;;;;;;2.95;2.33;;;3.50;53.50;;;;;;4994164;28;20058;-80
2023/03/15 05:08:44;;;;;;;3.92;2.13;;;3.50;53.50;;;;;;5004053;28;20543;-79
2023/03/15 05:11:22;;;;;;;3.47;2.40;;;3.50;53.50;;;;;;5005913;28;20091;-81
2023/03/15 05:14:04;;;;;;;4.35;2.50;;;3.50;53.50;;;;;;4996060;28;20127;-81
2023/03/15 05:16:32;;;;;;;3.78;2.30;;;3.50;53.50;;;;;;5007951;28;20038;-80
2023/03/15 05:19:17;;;;;;;2.80;2.40;;;3.50;53.50;;;;;;5011386;28;20096;-81
2023/03/15 05:22:02;;;;;;;2.40;2.00;;;3.50;53.50;;;;;;5008775;28;20014;-80
2023/03/15 05:24:49;;;;;;;3.30;2.45;;;3.50;53.50;;;;;;5008061;28;20221;-79
2023/03/15 05:27:24;;;;;;;4.18;2.42;;;3.50;53.50;;;;;;5016481;28;20085;-80
2023/03/15 05:30:09;;;;;;;1.98;1.60;;;3.50;53.50;;;;;;5007443;28;20049;-79
2023/03/15 05:32:56;;;;;;;3.90;2.15;;;3.40;53.30;;;;;;5019112;28;20029;-80
2023/03/15 05:35:37;;;;;;;3.28;2.22;;;3.50;53.50;;;;;;4997620;28;20031;-78
2023/03/15 05:38:26;;;;;;;3.13;2.00;;;3.50;53.60;;;;;;4971867;28;20062;-80
2023/03/15 05:41:16;;;;;;;2.08;1.85;;;3.40;53.40;;;;;;4978409;28;20042;-81
2023/03/15 05:44:06;;;;;;;2.35;1.80;;;3.40;53.40;;;;;;4985111;28;20589;-81
2023/03/15 05:46:50;;;;;;;3.88;1.98;;;3.50;53.60;;;;;;4989270;28;20027;-82
2023/03/15 05:49:35;;;;;;;2.83;1.90;;;3.40;53.40;;;;;;4986773;28;20053;-81
2023/03/15 05:52:25;;;;;;;3.05;1.92;;;3.40;53.40;;;;;;4986538;28;20048;-81
2023/03/15 05:55:18;;;;;;;4.35;1.75;;;3.40;53.50;;;;;;4986505;28;20048;-80
2023/03/15 05:58:04;;;;;;;2.95;1.90;;;3.40;53.50;;;;;;4982333;28;20034;-79
2023/03/15 06:00:55;;;;;;;2.42;1.70;;;3.40;54.00;;;;;;4991999;28;20034;-80
2023/03/15 06:03:39;;;;;;;2.05;1.80;;;3.40;53.50;;;;;;4998796;28;20058;-81
2023/03/15 06:06:14;;;;;;;2.53;1.50;;;3.40;53.50;;;;;;4978958;28;20114;-82
2023/03/15 06:08:41;;;;;;;3.33;1.92;;;3.40;53.60;;;;;;4983442;28;20042;-81
2023/03/15 06:11:07;;;;;;;2.08;1.88;;;3.40;53.60;;;;;;4981541;28;20031;-80
2023/03/15 06:13:38;;;;;;;2.83;1.88;;;3.40;53.60;;;;;;4990909;28;20042;-79
2023/03/15 06:16:12;;;;;;;4.18;1.83;;;3.40;53.60;;;;;;4994573;28;20652;-82
2023/03/15 06:18:45;;;;;;;2.92;1.40;;;3.40;53.60;;;;;;4989601;28;20568;-79
2023/03/15 06:21:11;;;;;;;3.45;2.10;;;3.30;53.50;;;;;;4979024;28;20026;-80
2023/03/15 06:23:39;;;;;;;2.20;1.95;;;3.40;53.60;;;;;;4987836;28;20131;-78
2023/03/15 06:26:05;;;;;;;2.13;1.92;;;3.40;53.60;;;;;;4991630;28;20127;-81
2023/03/15 06:28:31;;;;;;;2.63;2.15;;;3.40;53.60;;;;;;4988597;28;20224;-81
2023/03/15 06:31:08;;;;;;;2.83;2.35;;;3.40;53.60;;;;;;4980729;28;20026;-80
2023/03/15 06:33:39;;;;;;;4.53;2.33;;;3.30;53.40;;;;;;4987365;28;20065;-87
2023/03/15 06:36:08;;;;;;;4.25;2.42;;;3.40;53.60;;;;;;4975551;28;20138;-79
2023/03/15 06:38:35;;;;;;;3.65;2.50;;;3.30;54.00;;;;;;4981380;28;20517;-79
2023/03/15 06:41:04;;;;;;;3.35;2.40;;;3.40;53.60;;;;;;4993754;28;20643;-80
2023/03/15 06:43:31;;;;;;;5.47;2.45;;;3.40;53.60;;;;;;4989399;28;20434;-79
2023/03/15 06:45:58;;;;;;;4.35;3.33;;;3.40;53.60;;;;;;4988925;28;20038;-80
2023/03/15 06:48:26;;;;;;;3.95;2.80;;;3.40;53.60;;;;;;4988657;28;20137;-79
2023/03/15 06:50:52;;;;;;;4.70;3.50;;;3.40;53.60;;;;;;4989709;28;20040;-80
2023/03/15 06:53:18;;;;;;;3.95;3.42;;;3.50;53.90;;;;;;4994400;28;20037;-79
2023/03/15 06:55:47;;;;;;;4.18;3.35;;;3.50;54.10;;;;;;4984595;28;20077;-77
2023/03/15 06:58:13;;;;;;;4.25;3.55;;;3.60;54.40;;;;;;4988629;28;20041;-85
2023/03/15 07:00:40;;;;;;;4.20;3.78;;;3.70;54.50;;;;;;4985522;28;20040;-77
2023/03/15 07:03:06;;;;;;;4.50;4.10;;;3.80;54.80;;;;;;4989011;28;20814;-78
2023/03/15 07:05:32;;;;;;;6.28;3.90;;;3.90;55.10;;;;;;4973613;28;20109;-80
2023/03/15 07:07:58;;;;;;;6.47;4.05;;;4.10;55.50;;;;;;4968058;28;20043;-79
2023/03/15 07:10:24;;;;;;;5.75;4.00;;;4.20;55.60;;;;;;4987011;28;20245;-79
2023/03/15 07:12:50;;;;;;;3.53;3.22;;;4.20;55.50;;;;;;4985582;28;20034;-79
2023/03/15 07:15:16;;;;;;;4.70;4.05;;;4.30;55.70;;;;;;4969539;28;20505;-78
2023/03/15 07:17:42;;;;;;;4.03;3.63;;;4.30;55.70;;;;;;4982146;28;20065;-79
2023/03/15 07:20:09;;;;;;;4.05;3.47;;;4.40;56.10;;;;;;4974950;28;20169;-78
2023/03/15 07:22:35;;;;;;;4.10;3.35;;;4.50;56.20;;;;;;4980710;28;20053;-78
2023/03/15 07:25:01;;;;;;;3.92;3.58;;;4.50;56.10;;;;;;4974109;28;20042;-79
2023/03/15 07:27:29;;;;;;;3.70;3.40;;;4.60;56.30;;;;;;4981521;28;20514;-79
2023/03/15 07:29:56;;;;;;;3.92;3.53;;;4.60;56.20;;;;;;4981141;28;20034;-79
2023/03/15 07:32:24;;;;;;;3.97;3.20;;;4.70;56.30;;;;;;4978987;28;20585;-78
2023/03/15 07:34:50;;;;;;;4.07;2.95;;;4.70;56.20;;;;;;4981902;28;20038;-78
2023/03/15 07:37:16;;;;;;;5.70;3.28;;;4.80;56.40;;;;;;4986184;28;20045;-79
2023/03/15 07:39:42;;;;;;;4.68;3.25;;;4.90;56.40;;;;;;4988241;28;20106;-79
2023/03/15 07:42:09;;;;;;;4.07;3.35;;;4.90;56.30;;;;;;4970874;28;20043;-78
2023/03/15 07:44:40;;;;;;;5.15;3.45;;;4.90;56.20;;;;;;4993004;28;20454;-77
2023/03/15 07:47:06;;;;;;;4.25;3.65;;;5.00;56.30;;;;;;4979353;28;20038;-78
2023/03/15 07:49:33;;;;;;;5.53;3.42;;;5.10;56.30;;;;;;4983669;28;20053;-80
2023/03/15 07:51:59;;;;;;;5.43;3.38;;;5.10;56.20;;;;;;4973996;28;20034;-79
2023/03/15 07:54:25;;;;;;;3.63;3.08;;;5.20;56.30;;;;;;4979023;28;20034;-79
2023/03/15 07:56:51;;;;;;;3.53;3.22;;;5.30;56.40;;;;;;4978241;28;20030;-77
2023/03/15 07:59:17;;;;;;;3.78;3.45;;;5.30;56.30;;;;;;4978836;28;20520;-79
2023/03/15 08:01:43;;;;;;;4.85;3.42;;;5.40;56.30;;;;;;4975342;28;20068;-79
2023/03/15 08:04:09;;;;;;;5.75;3.72;;;5.50;56.40;;;;;;4983798;28;20485;-78
2023/03/15 08:06:35;;;;;;;4.85;3.30;;;5.50;56.30;;;;;;4980245;28;20378;-78
2023/03/15 08:09:03;;;;;;;5.18;3.28;;;5.60;56.40;;;;;;4985794;28;20031;-78
2023/03/15 08:11:29;;;;;;;3.88;3.42;;;5.70;56.40;;;;;;4975686;28;20057;-78
2023/03/15 08:13:55;;;;;;;4.38;3.90;;;5.70;56.30;;;;;;4975956;28;20038;-77
2023/03/15 08:16:21;;;;;;;3.38;2.85;;;5.80;56.40;;;;;;4983174;28;20037;-78
2023/03/15 08:18:47;;;;;;;4.50;3.80;;;5.90;56.40;;;;;;4992112;28;20512;-80
2023/03/15 08:21:13;;;;;;;3.25;2.72;;;6.00;56.50;;;;;;4983410;28;20670;-79
2023/03/15 08:23:39;;;;;;;4.07;2.53;;;6.10;56.50;;;;;;4991909;28;20052;-80
2023/03/15 08:26:05;;;;;;;3.13;2.83;;;6.10;56.40;;;;;;4972064;28;20039;-79
2023/03/15 08:28:31;;;;;;;4.38;3.25;;;6.20;56.40;;;;;;4993746;28;20049;-79
2023/03/15 08:30:57;;;;;;;3.17;2.58;;;6.30;56.50;;;;;;4988302;28;20036;-81
2023/03/15 08:33:23;;;;;;;2.88;2.55;;;6.30;56.40;;;;;;4993438;28;20362;-80
2023/03/15 08:35:52;;;;;;;2.75;2.20;;;6.50;56.70;;;;;;4992630;28;20120;-79
2023/03/15 08:38:19;;;;;;;4.22;2.63;;;6.50;56.60;;;;;;4992869;28;20099;-79
2023/03/15 08:40:45;;;;;;;4.35;2.90;;;6.60;56.60;;;;;;4990124;28;20084;-80
2023/03/15 08:43:11;;;;;;;2.60;2.22;;;6.70;56.70;;;;;;4981856;28;20150;-79
2023/03/15 08:45:37;;;;;;;2.70;2.03;;;6.80;56.80;;;;;;4995565;28;20109;-80
2023/03/15 08:48:03;;;;;;;2.78;2.22;;;6.80;56.70;;;;;;4982081;28;20573;-79
2023/03/15 08:50:30;;;;;;;14.02;3.33;;;7.00;56.90;;;;;;4970159;28;20034;-78
2023/03/15 08:52:56;;;;;;;2.53;2.20;;;7.00;56.80;;;;;;5006655;28;20030;-80
2023/03/15 08:55:22;;;;;;;5.30;2.60;;;7.20;57.10;;;;;;4999955;28;20030;-78
2023/03/15 08:57:49;;;;;;;2.45;2.13;;;7.30;57.10;;;;;;4996314;28;20045;-79
2023/03/15 09:00:19;;;;;;;2.78;1.75;;;7.40;57.10;;;;;;4979230;28;20042;-78
2023/03/15 09:02:50;;;;;;;3.40;1.98;;;7.50;57.10;;;;;;4996057;28;20501;-77
2023/03/15 09:05:17;;;;;;;4.22;2.42;;;7.60;57.20;;;;;;4975954;28;20049;-79
2023/03/15 09:07:44;;;;;;;3.75;2.30;;;7.70;57.10;;;;;;4996522;28;20493;-79
2023/03/15 09:10:13;;;;;;;5.97;1.90;;;7.90;57.30;;;;;;4998026;28;20040;-78
2023/03/15 09:12:45;;;;;;;3.33;2.10;;;8.00;57.30;;;;;;4979984;28;20072;-79
2023/03/15 09:15:12;;;;;;;4.30;1.83;;;8.10;57.30;;;;;;4984722;28;20745;-77
2023/03/15 09:17:44;;;;;;;4.50;1.88;;;8.20;57.30;;;;;;4983130;28;20038;-81
2023/03/15 09:20:15;;;;;;;2.58;1.52;;;8.40;57.40;;;;;;4984821;28;20116;-80
2023/03/15 09:22:42;;;;;;;4.00;1.95;;;8.50;57.40;;;;;;4977338;28;20516;-80
2023/03/15 09:25:08;;;;;;;3.17;1.88;;;8.60;57.30;;;;;;4976911;28;20032;-79
2023/03/15 09:27:35;;;;;;;4.82;2.00;;;8.70;57.30;;;;;;4981365;28;20157;-78
2023/03/15 09:30:02;;;;;;;4.35;2.50;;;8.90;57.50;;;;;;4988375;28;21065;-78
2023/03/15 09:32:28;;;;;;;2.78;1.60;;;9.00;57.50;;;;;;4987329;28;20103;-78
2023/03/15 09:34:54;;;;;;;4.72;2.25;;;9.10;57.50;;;;;;4996597;28;20034;-79
2023/03/15 09:37:20;;;;;;;4.03;1.55;;;9.20;57.50;;;;;;4992567;28;20053;-79
2023/03/15 09:39:48;;;;;;;5.97;1.88;;;9.30;57.60;;;;;;4992124;28;20034;-79
2023/03/15 09:42:23;;;;;;;5.82;2.10;;;9.40;57.70;;;;;;4997152;28;20386;-79
2023/03/15 09:45:13;;;;;;;3.83;2.00;;;9.50;57.70;;;;;;4983237;28;20122;-80
2023/03/15 09:48:07;;;;;;;3.65;1.92;;;9.60;57.70;;;;;;4991850;28;20631;-80
2023/03/15 09:50:51;;;;;;;3.60;2.10;;;9.70;57.80;;;;;;4977228;28;20039;-78
2023/03/15 09:53:20;;;;;;;7.53;1.88;;;9.90;57.80;;;;;;4995697;28;20031;-79
2023/03/15 09:55:49;;;;;;;2.42;2.05;;;10.00;57.80;;;;;;4971393;28;20022;-81
2023/03/15 09:58:21;;;;;;;4.13;2.22;;;10.10;57.80;;;;;;4986896;28;20053;-79
2023/03/15 10:00:54;;;;;;;2.95;1.85;;;10.20;57.80;;;;;;4990848;28;20112;-79
2023/03/15 10:03:26;;;;;;;3.00;1.90;;;10.30;57.80;;;;;;4971702;28;20587;-81
2023/03/15 10:05:57;;;;;;;3.60;1.83;;;10.40;57.80;;;;;;4990393;28;20034;-80
2023/03/15 10:08:24;;;;;;;3.47;2.13;;;10.60;58.00;;;;;;4991295;28;20659;-81
2023/03/15 10:10:55;;;;;;;3.35;1.70;;;10.70;58.00;;;;;;4989662;28;20367;-79
2023/03/15 10:13:30;;;;;;;3.53;2.15;;;10.70;57.80;;;;;;4993990;28;20080;-78
2023/03/15 10:16:05;;;;;;;3.17;2.50;;;10.80;57.90;;;;;;4976278;28;20049;-80
2023/03/15 10:19:16;;;;;;;6.32;2.38;;;11.00;58.10;;;;;;4987774;28;20536;-80
2023/03/15 10:21:48;;;;;;;5.00;2.15;;;11.00;57.90;;;;;;4982234;28;20045;-80
2023/03/15 10:24:18;;;;;;;3.10;2.63;;;11.10;58.00;;;;;;4988473;28;20042;-79
2023/03/15 10:26:50;;;;;;;5.68;2.13;;;11.10;57.90;;;;;;4989407;28;20327;-80
2023/03/15 10:29:19;;;;;;;6.80;2.55;;;11.20;58.00;;;;;;4997554;28;20034;-80
2023/03/15 10:31:46;;;;;;;5.18;1.83;;;11.30;58.10;;;;;;4982624;28;20477;-80
2023/03/15 10:34:13;;;;;;;4.32;1.95;;;11.30;58.00;;;;;;4982707;28;20374;-80
2023/03/15 10:36:54;;;;;;;4.80;1.90;;;11.30;58.00;;;;;;4979029;28;20335;-79
2023/03/15 10:39:21;;;;;;;3.95;1.67;;;11.40;58.10;;;;;;4985910;28;20030;-79
2023/03/15 10:41:49;;;;;;;1.88;1.20;;;11.40;58.00;;;;;;4989062;28;20038;-80
2023/03/15 10:44:21;;;;;;;6.82;1.40;;;11.50;58.20;;;;;;4984801;28;20111;-79
2023/03/15 10:47:08;;;;;;;2.80;1.30;;;11.50;58.10;;;;;;4980763;28;20124;-78
2023/03/15 10:49:37;;;;;;;2.70;1.13;;;11.70;58.30;;;;;;4986521;28;20050;-79
2023/03/15 10:52:05;;;;;;;3.60;1.63;;;11.80;58.30;;;;;;4981636;28;20287;-79
2023/03/15 10:54:34;;;;;;;3.20;1.35;;;11.90;58.30;;;;;;4984565;28;20064;-80
2023/03/15 10:57:01;;;;;;;3.42;1.30;;;12.00;58.20;;;;;;4981524;28;20030;-79
2023/03/15 10:59:29;;;;;;;5.53;1.13;;;12.10;58.10;;;;;;4986987;28;20039;-79
2023/03/15 11:02:27;;;;;;;3.58;1.25;;;12.30;58.10;;;;;;4980247;28;20046;-78
2023/03/15 11:05:09;;;;;;;2.50;0.95;;;12.40;57.90;;;;;;4971009;28;20508;-79
2023/03/15 11:07:35;;;;;;;3.95;1.27;;;12.60;57.90;;;;;;4982585;28;20576;-79
2023/03/15 11:10:04;;;;;;;3.83;1.10;;;12.70;57.90;;;;;;4984581;28;20030;-78
2023/03/15 11:12:33;;;;;;;1.83;1.35;;;12.80;57.80;;;;;;4982246;28;20038;-80
2023/03/15 11:15:09;;;;;;;4.55;1.20;;;12.90;57.70;;;;;;4978653;28;20039;-80
2023/03/15 11:17:45;;;;;;;3.22;1.00;;;13.00;57.70;;;;;;4982412;28;20045;-81
2023/03/15 11:20:37;;;;;;;4.50;1.38;;;13.10;57.60;;;;;;4978652;28;20727;-80
2023/03/15 11:23:33;;;;;;;1.52;0.63;;;13.10;57.40;;;;;;4960055;28;20055;-80
2023/03/15 11:26:00;;;;;;;6.80;1.45;;;13.20;57.50;;;;;;4976350;28;20621;-79
2023/03/15 11:28:34;;;;;;;3.45;1.20;;;13.30;57.50;;;;;;4979233;28;20474;-79
2023/03/15 11:31:03;;;;;;;5.15;2.38;;;13.30;57.30;;;;;;4978579;28;20074;-77
2023/03/15 11:33:51;;;;;;;3.22;1.00;;;13.40;57.40;;;;;;4978282;28;20129;-77
2023/03/15 11:36:22;;;;;;;2.95;1.23;;;13.40;57.30;;;;;;4977409;28;20046;-77
2023/03/15 11:38:49;;;;;;;3.58;1.35;;;13.50;57.40;;;;;;4995006;28;20487;-77
2023/03/15 11:41:34;;;;;;;1.45;0.90;;;13.50;57.20;;;;;;4982717;28;20853;-78
2023/03/15 11:44:49;;;;;;;1.65;1.33;;;13.50;57.10;;;;;;4984324;28;20050;-78
2023/03/15 11:47:37;;;;;;;5.18;1.23;;;13.60;57.20;;;;;;4974161;28;20066;-79
2023/03/15 11:50:03;;;;;;;5.07;1.30;;;13.70;57.40;;;;;;4981695;28;20292;-78
2023/03/15 11:52:29;;;;;;;2.65;0.95;;;13.80;57.50;;;;;;4976281;28;20052;-77
2023/03/15 11:55:00;;;;;;;5.47;0.85;;;14.00;57.70;;;;;;4980127;28;20026;-77
2023/03/15 11:57:41;;;;;;;3.35;1.15;;;14.00;57.50;;;;;;4969679;28;20065;-79
2023/03/15 12:00:17;;;;;;;4.03;1.95;;;14.20;57.70;;;;;;4983544;28;20049;-78
2023/03/15 12:02:58;;;;;;;1.25;0.90;;;14.30;57.70;;;;;;4996660;28;20045;-80
2023/03/15 12:06:01;;;;;;;2.65;1.23;;;14.40;57.70;;;;;;4975931;28;20070;-78
2023/03/15 12:08:50;;;;;;;1.25;0.80;;;14.50;57.60;;;;;;4979946;28;20050;-77
2023/03/15 12:11:19;;;;;;;2.53;0.95;;;14.60;57.70;;;;;;4989910;28;20101;-77
2023/03/15 12:14:00;;;;;;;1.40;0.93;;;14.70;57.80;;;;;;4999245;28;20353;-77
2023/03/15 12:16:38;;;;;;;4.47;1.00;;;14.80;57.70;;;;;;4994429;28;20034;-79
2023/03/15 12:19:15;;;;;;;3.10;1.17;;;15.00;57.70;;;;;;4990017;28;20046;-76
2023/03/15 12:21:53;;;;;;;2.83;1.00;;;15.20;57.80;;;;;;4998527;28;20353;-77
2023/03/15 12:24:29;;;;;;;3.13;1.20;;;15.30;57.70;;;;;;4994170;28;20317;-76
2023/03/15 12:27:01;;;;;;;2.13;1.00;;;15.50;57.80;;;;;;5006493;28;20049;-77
2023/03/15 12:29:31;;;;;;;1.58;1.02;;;15.60;57.60;;;;;;5009683;28;20053;-77
2023/03/15 12:32:06;;;;;;;2.08;1.23;;;15.80;57.70;;;;;;4980242;28;20046;-77
2023/03/15 12:34:49;;;;;;;5.57;1.13;;;16.00;57.80;;;;;;4986714;28;20041;-77
2023/03/15 12:37:22;;;;;;;1.35;0.90;;;16.00;57.50;;;;;;4982201;28;20038;-76
2023/03/15 12:40:15;;;;;;;4.38;1.25;;;16.10;57.50;;;;;;5004837;28;20034;-76
2023/03/15 12:42:43;;;;;;;1.05;0.70;;;16.10;57.20;;;;;;4981968;28;20080;-76
2023/03/15 12:45:14;;;;;;;7.30;1.15;;;16.20;57.50;;;;;;4978252;28;20039;-76
2023/03/15 12:48:11;;;;;;;2.72;1.33;;;16.20;57.30;;;;;;4983306;28;20191;-76
2023/03/15 12:50:44;;;;;;;2.55;1.42;;;16.20;57.10;;;;;;4967392;28;20066;-78
2023/03/15 12:53:35;;;;;;;3.97;1.13;;;16.10;57.10;;;;;;4964498;28;20736;-79
2023/03/15 12:56:31;;;;;;;2.38;1.10;;;16.10;57.10;;;;;;4982202;28;20042;-79
2023/03/15 12:59:03;;;;;;;3.25;1.40;;;16.00;56.90;;;;;;4967118;28;20093;-79
2023/03/15 13:01:32;;;;;;;4.70;2.13;;;16.00;57.10;;;;;;4978563;28;20129;-78
2023/03/15 13:04:02;;;;;;;2.05;1.38;;;16.00;57.10;;;;;;4981548;28;20105;-78
2023/03/15 13:06:48;;;;;;;4.53;1.33;;;15.90;56.80;;;;;;4981494;28;20022;-78
2023/03/15 13:09:42;;;;;;;1.73;1.02;;;15.80;56.60;;;;;;4982659;28;20312;-78
2023/03/15 13:12:24;;;;;;;2.88;1.00;;;15.70;56.50;;;;;;4980310;28;20046;-78
2023/03/15 13:15:05;;;;;;;4.45;1.23;;;15.60;56.60;;;;;;4980582;28;20038;-77
2023/03/15 13:17:31;;;;;;;4.05;1.50;;;15.50;56.60;;;;;;4980758;28;20088;-78
2023/03/15 13:20:15;;;;;;;2.03;1.00;;;15.50;56.80;;;;;;4982992;28;20233;-77
2023/03/15 13:23:00;;;;;;;4.10;1.00;;;15.50;56.60;;;;;;4984133;28;20050;-78